sensor_id;sensor_type;location;lat;lon;timestamp;temperature;humidity
75022;SHT31;63583;49.976;20.182;2022-11-15T00:01:55;3.58;98.84
75022;SHT31;63583;49.976;20.182;2022-11-15T00:04:22;3.66;98.36
75022;SHT31;63583;49.976;20.182;2022-11-15T00:06:47;3.55;98.04
75022;SHT31;63583;49.976;20.182;2022-11-15T00:09:13;3.58;98.64
75022;SHT31;63583;49.976;20.182;2022-11-15T00:11:39;3.50;98.77
75022;SHT31;63583;49.976;20.182;2022-11-15T00:14:04;3.46;98.56
75022;SHT31;63583;49.976;20.182;2022-11-15T00:16:30;3.38;98.40
75022;SHT31;63583;49.976;20.182;2022-11-15T00:18:56;3.45;98.66
75022;SHT31;63583;49.976;20.182;2022-11-15T00:21:22;3.35;98.08
75022;SHT31;63583;49.976;20.182;2022-11-15T00:23:48;3.36;98.37
75022;SHT31;63583;49.976;20.182;2022-11-15T00:26:15;3.31;98.17
75022;SHT31;63583;49.976;20.182;2022-11-15T00:28:41;3.18;98.50
75022;SHT31;63583;49.976;20.182;2022-11-15T00:31:12;3.17;98.69
75022;SHT31;63583;49.976;20.182;2022-11-15T00:33:50;3.14;98.31
75022;SHT31;63583;49.976;20.182;2022-11-15T00:36:17;3.11;98.50
75022;SHT31;63583;49.976;20.182;2022-11-15T00:38:43;3.13;98.35
75022;SHT31;63583;49.976;20.182;2022-11-15T00:41:08;3.07;98.33
75022;SHT31;63583;49.976;20.182;2022-11-15T00:43:34;3.06;98.31
75022;SHT31;63583;49.976;20.182;2022-11-15T00:46:00;3.06;98.45
75022;SHT31;63583;49.976;20.182;2022-11-15T00:48:28;3.17;97.75
75022;SHT31;63583;49.976;20.182;2022-11-15T00:50:54;3.04;97.86
75022;SHT31;63583;49.976;20.182;2022-11-15T00:53:19;2.97;98.63
75022;SHT31;63583;49.976;20.182;2022-11-15T00:55:46;3.00;98.92
75022;SHT31;63583;49.976;20.182;2022-11-15T00:58:11;3.04;98.22
75022;SHT31;63583;49.976;20.182;2022-11-15T01:00:37;2.96;98.71
75022;SHT31;63583;49.976;20.182;2022-11-15T01:03:03;3.01;98.85
75022;SHT31;63583;49.976;20.182;2022-11-15T01:05:29;2.92;99.01
75022;SHT31;63583;49.976;20.182;2022-11-15T01:07:55;2.96;99.30
75022;SHT31;63583;49.976;20.182;2022-11-15T01:10:22;2.96;99.28
75022;SHT31;63583;49.976;20.182;2022-11-15T01:12:49;2.90;99.27
75022;SHT31;63583;49.976;20.182;2022-11-15T01:15:15;2.90;99.06
75022;SHT31;63583;49.976;20.182;2022-11-15T01:17:41;2.92;98.90
75022;SHT31;63583;49.976;20.182;2022-11-15T01:20:07;2.92;98.85
75022;SHT31;63583;49.976;20.182;2022-11-15T01:22:33;2.97;98.82
75022;SHT31;63583;49.976;20.182;2022-11-15T01:24:59;3.01;98.50
75022;SHT31;63583;49.976;20.182;2022-11-15T01:27:25;3.08;98.66
75022;SHT31;63583;49.976;20.182;2022-11-15T01:29:51;2.99;98.11
75022;SHT31;63583;49.976;20.182;2022-11-15T01:32:17;2.92;98.09
75022;SHT31;63583;49.976;20.182;2022-11-15T01:34:43;2.92;97.97
75022;SHT31;63583;49.976;20.182;2022-11-15T01:37:09;2.85;98.03
75022;SHT31;63583;49.976;20.182;2022-11-15T01:39:34;2.83;98.41
75022;SHT31;63583;49.976;20.182;2022-11-15T01:42:01;2.82;98.83
75022;SHT31;63583;49.976;20.182;2022-11-15T01:47:24;2.92;98.92
75022;SHT31;63583;49.976;20.182;2022-11-15T01:50:11;2.87;98.54
75022;SHT31;63583;49.976;20.182;2022-11-15T01:52:38;2.94;98.84
75022;SHT31;63583;49.976;20.182;2022-11-15T01:55:09;3.01;98.94
75022;SHT31;63583;49.976;20.182;2022-11-15T01:57:35;2.94;98.63
75022;SHT31;63583;49.976;20.182;2022-11-15T02:00:03;2.96;98.81
75022;SHT31;63583;49.976;20.182;2022-11-15T02:02:30;3.11;98.37
75022;SHT31;63583;49.976;20.182;2022-11-15T02:04:57;2.99;98.33
75022;SHT31;63583;49.976;20.182;2022-11-15T02:07:23;3.08;98.70
75022;SHT31;63583;49.976;20.182;2022-11-15T02:09:50;3.15;98.77
75022;SHT31;63583;49.976;20.182;2022-11-15T02:12:19;3.20;98.50
75022;SHT31;63583;49.976;20.182;2022-11-15T02:14:47;3.13;98.06
75022;SHT31;63583;49.976;20.182;2022-11-15T02:17:21;3.07;98.01
75022;SHT31;63583;49.976;20.182;2022-11-15T02:33:12;2.96;98.38
75022;SHT31;63583;49.976;20.182;2022-11-15T02:38:54;3.01;98.30
75022;SHT31;63583;49.976;20.182;2022-11-15T02:41:33;2.94;98.23
75022;SHT31;63583;49.976;20.182;2022-11-15T02:44:07;2.87;98.53
75022;SHT31;63583;49.976;20.182;2022-11-15T02:46:55;2.94;98.57
75022;SHT31;63583;49.976;20.182;2022-11-15T02:49:46;2.92;98.03
75022;SHT31;63583;49.976;20.182;2022-11-15T02:52:15;2.93;98.07
75022;SHT31;63583;49.976;20.182;2022-11-15T02:54:41;3.00;97.83
75022;SHT31;63583;49.976;20.182;2022-11-15T02:57:12;3.01;97.43
75022;SHT31;63583;49.976;20.182;2022-11-15T03:00:05;3.01;97.09
75022;SHT31;63583;49.976;20.182;2022-11-15T03:19:17;2.86;97.36
75022;SHT31;63583;49.976;20.182;2022-11-15T03:21:45;2.86;97.64
75022;SHT31;63583;49.976;20.182;2022-11-15T03:24:14;2.89;97.80
75022;SHT31;63583;49.976;20.182;2022-11-15T03:26:43;2.93;97.99
75022;SHT31;63583;49.976;20.182;2022-11-15T03:29:16;2.97;97.93
75022;SHT31;63583;49.976;20.182;2022-11-15T03:31:51;3.00;97.78
75022;SHT31;63583;49.976;20.182;2022-11-15T03:34:25;3.07;97.60
75022;SHT31;63583;49.976;20.182;2022-11-15T03:36:52;3.01;97.23
75022;SHT31;63583;49.976;20.182;2022-11-15T03:39:19;2.94;97.09
75022;SHT31;63583;49.976;20.182;2022-11-15T03:42:32;2.97;97.60
75022;SHT31;63583;49.976;20.182;2022-11-15T03:44:45;2.99;97.03
75022;SHT31;63583;49.976;20.182;2022-11-15T03:49:42;2.85;97.43
75022;SHT31;63583;49.976;20.182;2022-11-15T03:52:10;2.85;97.43
75022;SHT31;63583;49.976;20.182;2022-11-15T03:54:37;2.90;97.32
75022;SHT31;63583;49.976;20.182;2022-11-15T03:57:12;2.87;97.55
75022;SHT31;63583;49.976;20.182;2022-11-15T03:59:38;2.87;97.46
75022;SHT31;63583;49.976;20.182;2022-11-15T04:02:04;2.87;97.76
75022;SHT31;63583;49.976;20.182;2022-11-15T04:04:30;2.83;97.69
75022;SHT31;63583;49.976;20.182;2022-11-15T04:06:56;2.85;97.92
75022;SHT31;63583;49.976;20.182;2022-11-15T04:09:22;2.77;97.73
75022;SHT31;63583;49.976;20.182;2022-11-15T04:11:47;2.86;97.93
75022;SHT31;63583;49.976;20.182;2022-11-15T04:14:13;2.86;97.80
75022;SHT31;63583;49.976;20.182;2022-11-15T04:16:39;2.85;97.77
75022;SHT31;63583;49.976;20.182;2022-11-15T04:19:04;2.87;97.70
75022;SHT31;63583;49.976;20.182;2022-11-15T04:21:49;2.97;97.63
75022;SHT31;63583;49.976;20.182;2022-11-15T04:24:33;3.00;97.32
75022;SHT31;63583;49.976;20.182;2022-11-15T04:26:59;2.85;96.97
75022;SHT31;63583;49.976;20.182;2022-11-15T04:29:25;2.85;97.47
75022;SHT31;63583;49.976;20.182;2022-11-15T04:32:01;2.87;97.35
75022;SHT31;63583;49.976;20.182;2022-11-15T04:34:26;2.92;97.31
75022;SHT31;63583;49.976;20.182;2022-11-15T04:36:52;2.89;96.88
75022;SHT31;63583;49.976;20.182;2022-11-15T04:39:36;2.82;96.97
75022;SHT31;63583;49.976;20.182;2022-11-15T04:42:02;2.73;96.87
75022;SHT31;63583;49.976;20.182;2022-11-15T04:44:28;2.73;97.29
75022;SHT31;63583;49.976;20.182;2022-11-15T04:46:54;2.65;97.07
75022;SHT31;63583;49.976;20.182;2022-11-15T04:49:20;2.49;97.60
75022;SHT31;63583;49.976;20.182;2022-11-15T04:51:46;2.60;97.35
75022;SHT31;63583;49.976;20.182;2022-11-15T04:54:11;2.50;96.94
75022;SHT31;63583;49.976;20.182;2022-11-15T04:56:37;2.28;96.61
75022;SHT31;63583;49.976;20.182;2022-11-15T04:59:03;2.22;97.24
75022;SHT31;63583;49.976;20.182;2022-11-15T05:01:28;2.22;97.83
75022;SHT31;63583;49.976;20.182;2022-11-15T05:03:54;2.10;97.28
75022;SHT31;63583;49.976;20.182;2022-11-15T05:06:39;2.10;97.58
75022;SHT31;63583;49.976;20.182;2022-11-15T05:09:04;1.86;97.40
75022;SHT31;63583;49.976;20.182;2022-11-15T05:11:31;1.83;97.56
75022;SHT31;63583;49.976;20.182;2022-11-15T05:13:56;2.06;97.85
75022;SHT31;63583;49.976;20.182;2022-11-15T05:16:22;1.87;97.31
75022;SHT31;63583;49.976;20.182;2022-11-15T05:18:53;1.81;97.31
75022;SHT31;63583;49.976;20.182;2022-11-15T05:21:20;1.81;97.51
75022;SHT31;63583;49.976;20.182;2022-11-15T05:23:45;1.83;97.17
75022;SHT31;63583;49.976;20.182;2022-11-15T05:26:12;1.80;97.23
75022;SHT31;63583;49.976;20.182;2022-11-15T05:28:38;1.76;97.22
75022;SHT31;63583;49.976;20.182;2022-11-15T05:31:08;1.63;97.22
75022;SHT31;63583;49.976;20.182;2022-11-15T05:33:35;1.58;97.77
75022;SHT31;63583;49.976;20.182;2022-11-15T05:36:06;1.59;97.54
75022;SHT31;63583;49.976;20.182;2022-11-15T05:38:33;1.63;97.87
75022;SHT31;63583;49.976;20.182;2022-11-15T05:41:00;1.62;97.68
75022;SHT31;63583;49.976;20.182;2022-11-15T05:43:29;1.60;97.57
75022;SHT31;63583;49.976;20.182;2022-11-15T05:45:57;1.67;97.66
75022;SHT31;63583;49.976;20.182;2022-11-15T05:48:23;1.60;97.27
75022;SHT31;63583;49.976;20.182;2022-11-15T05:50:49;1.58;97.18
75022;SHT31;63583;49.976;20.182;2022-11-15T05:53:19;1.60;97.20
75022;SHT31;63583;49.976;20.182;2022-11-15T05:55:51;1.59;97.22
75022;SHT31;63583;49.976;20.182;2022-11-15T05:58:18;1.64;97.51
75022;SHT31;63583;49.976;20.182;2022-11-15T06:00:45;1.66;97.36
75022;SHT31;63583;49.976;20.182;2022-11-15T06:03:11;1.63;97.37
75022;SHT31;63583;49.976;20.182;2022-11-15T06:05:40;1.52;97.99
75022;SHT31;63583;49.976;20.182;2022-11-15T06:08:06;1.53;98.35
75022;SHT31;63583;49.976;20.182;2022-11-15T06:10:32;1.52;98.51
75022;SHT31;63583;49.976;20.182;2022-11-15T06:12:59;1.53;98.64
75022;SHT31;63583;49.976;20.182;2022-11-15T06:15:26;1.53;98.33
75022;SHT31;63583;49.976;20.182;2022-11-15T06:17:52;1.60;98.61
75022;SHT31;63583;49.976;20.182;2022-11-15T06:20:28;1.67;98.04
75022;SHT31;63583;49.976;20.182;2022-11-15T06:23:02;1.73;98.62
75022;SHT31;63583;49.976;20.182;2022-11-15T06:25:29;1.74;98.45
75022;SHT31;63583;49.976;20.182;2022-11-15T06:27:57;1.63;98.53
75022;SHT31;63583;49.976;20.182;2022-11-15T06:30:25;1.59;98.60
75022;SHT31;63583;49.976;20.182;2022-11-15T06:32:51;1.67;98.63
75022;SHT31;63583;49.976;20.182;2022-11-15T06:35:17;1.64;98.24
75022;SHT31;63583;49.976;20.182;2022-11-15T06:37:43;1.81;98.19
75022;SHT31;63583;49.976;20.182;2022-11-15T06:40:10;1.81;97.81
75022;SHT31;63583;49.976;20.182;2022-11-15T06:42:36;1.79;97.73
75022;SHT31;63583;49.976;20.182;2022-11-15T06:45:05;1.97;96.96
75022;SHT31;63583;49.976;20.182;2022-11-15T06:47:31;1.80;97.63
75022;SHT31;63583;49.976;20.182;2022-11-15T06:49:57;1.87;98.31
75022;SHT31;63583;49.976;20.182;2022-11-15T06:52:23;2.00;98.11
75022;SHT31;63583;49.976;20.182;2022-11-15T06:54:49;2.04;97.89
75022;SHT31;63583;49.976;20.182;2022-11-15T06:57:15;2.01;97.54
75022;SHT31;63583;49.976;20.182;2022-11-15T06:59:41;2.10;97.44
75022;SHT31;63583;49.976;20.182;2022-11-15T07:02:12;2.17;97.10
75022;SHT31;63583;49.976;20.182;2022-11-15T07:04:38;2.08;96.82
75022;SHT31;63583;49.976;20.182;2022-11-15T07:07:04;2.11;96.73
75022;SHT31;63583;49.976;20.182;2022-11-15T07:09:30;2.18;96.21
75022;SHT31;63583;49.976;20.182;2022-11-15T07:11:56;2.14;96.67
75022;SHT31;63583;49.976;20.182;2022-11-15T07:14:22;2.17;96.90
75022;SHT31;63583;49.976;20.182;2022-11-15T07:16:47;2.20;97.12
75022;SHT31;63583;49.976;20.182;2022-11-15T07:19:13;2.31;97.09
75022;SHT31;63583;49.976;20.182;2022-11-15T07:21:39;2.28;96.62
75022;SHT31;63583;49.976;20.182;2022-11-15T07:24:05;2.41;96.83
75022;SHT31;63583;49.976;20.182;2022-11-15T07:26:30;2.41;97.00
75022;SHT31;63583;49.976;20.182;2022-11-15T07:28:57;2.39;96.76
75022;SHT31;63583;49.976;20.182;2022-11-15T07:31:23;2.42;96.91
75022;SHT31;63583;49.976;20.182;2022-11-15T07:33:48;2.56;97.21
75022;SHT31;63583;49.976;20.182;2022-11-15T07:36:14;2.65;96.64
75022;SHT31;63583;49.976;20.182;2022-11-15T07:38:42;2.69;96.35
75022;SHT31;63583;49.976;20.182;2022-11-15T07:41:08;2.77;96.36
75022;SHT31;63583;49.976;20.182;2022-11-15T07:43:34;2.83;96.39
75022;SHT31;63583;49.976;20.182;2022-11-15T07:46:08;2.92;96.21
75022;SHT31;63583;49.976;20.182;2022-11-15T07:48:38;2.92;96.27
75022;SHT31;63583;49.976;20.182;2022-11-15T07:51:06;2.92;96.63
75022;SHT31;63583;49.976;20.182;2022-11-15T07:53:32;2.89;96.54
75022;SHT31;63583;49.976;20.182;2022-11-15T07:55:57;2.99;96.62
75022;SHT31;63583;49.976;20.182;2022-11-15T07:58:23;3.10;96.28
75022;SHT31;63583;49.976;20.182;2022-11-15T08:00:49;3.25;95.95
75022;SHT31;63583;49.976;20.182;2022-11-15T08:03:16;3.30;96.06
75022;SHT31;63583;49.976;20.182;2022-11-15T08:05:42;3.31;95.43
75022;SHT31;63583;49.976;20.182;2022-11-15T08:08:10;3.48;95.58
75022;SHT31;63583;49.976;20.182;2022-11-15T08:10:37;3.52;95.23
75022;SHT31;63583;49.976;20.182;2022-11-15T08:13:05;3.55;95.65
75022;SHT31;63583;49.976;20.182;2022-11-15T08:15:32;3.66;95.45
75022;SHT31;63583;49.976;20.182;2022-11-15T08:18:00;3.78;94.70
75022;SHT31;63583;49.976;20.182;2022-11-15T08:20:28;3.96;94.52
75022;SHT31;63583;49.976;20.182;2022-11-15T08:22:58;4.13;93.86
75022;SHT31;63583;49.976;20.182;2022-11-15T08:25:25;4.27;92.69
75022;SHT31;63583;49.976;20.182;2022-11-15T08:27:56;4.36;92.99
75022;SHT31;63583;49.976;20.182;2022-11-15T08:30:22;4.51;92.37
75022;SHT31;63583;49.976;20.182;2022-11-15T08:32:49;4.51;93.09
75022;SHT31;63583;49.976;20.182;2022-11-15T08:35:15;4.64;93.51
75022;SHT31;63583;49.976;20.182;2022-11-15T08:37:41;4.64;93.40
75022;SHT31;63583;49.976;20.182;2022-11-15T08:40:07;4.61;94.27
75022;SHT31;63583;49.976;20.182;2022-11-15T08:42:33;4.67;93.55
75022;SHT31;63583;49.976;20.182;2022-11-15T08:44:59;4.65;93.86
75022;SHT31;63583;49.976;20.182;2022-11-15T08:47:26;4.45;93.64
75022;SHT31;63583;49.976;20.182;2022-11-15T08:49:52;4.42;94.71
75022;SHT31;63583;49.976;20.182;2022-11-15T08:52:18;4.38;94.21
75022;SHT31;63583;49.976;20.182;2022-11-15T08:54:43;4.55;94.38
75022;SHT31;63583;49.976;20.182;2022-11-15T08:57:09;4.72;92.55
75022;SHT31;63583;49.976;20.182;2022-11-15T08:59:36;4.54;94.68
75022;SHT31;63583;49.976;20.182;2022-11-15T09:02:02;4.33;95.46
75022;SHT31;63583;49.976;20.182;2022-11-15T09:04:29;4.14;95.92
75022;SHT31;63583;49.976;20.182;2022-11-15T09:06:55;4.31;95.65
75022;SHT31;63583;49.976;20.182;2022-11-15T09:09:20;4.55;93.59
75022;SHT31;63583;49.976;20.182;2022-11-15T09:11:46;4.61;93.86
75022;SHT31;63583;49.976;20.182;2022-11-15T09:14:12;4.34;95.26
75022;SHT31;63583;49.976;20.182;2022-11-15T09:16:39;4.59;94.35
75022;SHT31;63583;49.976;20.182;2022-11-15T09:19:05;4.73;93.49
75022;SHT31;63583;49.976;20.182;2022-11-15T09:21:32;4.80;92.73
75022;SHT31;63583;49.976;20.182;2022-11-15T09:23:57;4.82;92.63
75022;SHT31;63583;49.976;20.182;2022-11-15T09:26:23;4.61;94.23
75022;SHT31;63583;49.976;20.182;2022-11-15T09:28:49;4.76;93.55
75022;SHT31;63583;49.976;20.182;2022-11-15T09:31:15;4.78;95.25
75022;SHT31;63583;49.976;20.182;2022-11-15T09:33:43;4.76;93.71
75022;SHT31;63583;49.976;20.182;2022-11-15T09:36:10;4.87;93.51
75022;SHT31;63583;49.976;20.182;2022-11-15T09:38:36;4.95;93.20
75022;SHT31;63583;49.976;20.182;2022-11-15T09:47:03;4.72;94.31
75022;SHT31;63583;49.976;20.182;2022-11-15T09:49:31;4.73;94.35
75022;SHT31;63583;49.976;20.182;2022-11-15T09:51:59;4.90;94.43
75022;SHT31;63583;49.976;20.182;2022-11-15T09:54:38;4.89;93.33
75022;SHT31;63583;49.976;20.182;2022-11-15T09:57:14;4.85;93.78
75022;SHT31;63583;49.976;20.182;2022-11-15T10:02:43;4.59;95.43
75022;SHT31;63583;49.976;20.182;2022-11-15T10:05:16;4.58;95.49
75022;SHT31;63583;49.976;20.182;2022-11-15T10:08:06;4.75;94.89
75022;SHT31;63583;49.976;20.182;2022-11-15T10:10:46;4.89;93.43
75022;SHT31;63583;49.976;20.182;2022-11-15T10:13:22;4.87;94.86
75022;SHT31;63583;49.976;20.182;2022-11-15T10:15:48;5.13;93.45
75022;SHT31;63583;49.976;20.182;2022-11-15T10:20:59;5.23;93.37
75022;SHT31;63583;49.976;20.182;2022-11-15T10:23:25;5.06;93.73
75022;SHT31;63583;49.976;20.182;2022-11-15T10:26:00;5.19;93.48
75022;SHT31;63583;49.976;20.182;2022-11-15T10:28:28;5.23;92.88
75022;SHT31;63583;49.976;20.182;2022-11-15T10:30:57;5.16;93.48
75022;SHT31;63583;49.976;20.182;2022-11-15T10:33:37;5.10;93.78
75022;SHT31;63583;49.976;20.182;2022-11-15T10:46:36;5.54;94.36
75022;SHT31;63583;49.976;20.182;2022-11-15T10:49:16;5.66;93.58
75022;SHT31;63583;49.976;20.182;2022-11-15T10:52:30;5.76;93.29
75022;SHT31;63583;49.976;20.182;2022-11-15T10:57:36;5.91;92.53
75022;SHT31;63583;49.976;20.182;2022-11-15T11:00:04;5.91;92.16
75022;SHT31;63583;49.976;20.182;2022-11-15T11:02:38;5.92;92.21
75022;SHT31;63583;49.976;20.182;2022-11-15T11:08:23;5.92;92.66
75022;SHT31;63583;49.976;20.182;2022-11-15T11:10:57;5.89;93.07
75022;SHT31;63583;49.976;20.182;2022-11-15T11:13:25;5.92;93.68
75022;SHT31;63583;49.976;20.182;2022-11-15T11:16:01;5.92;93.07
75022;SHT31;63583;49.976;20.182;2022-11-15T11:18:36;5.93;93.79
75022;SHT31;63583;49.976;20.182;2022-11-15T11:21:13;6.01;93.80
75022;SHT31;63583;49.976;20.182;2022-11-15T11:23:54;6.14;93.83
75022;SHT31;63583;49.976;20.182;2022-11-15T11:29:16;6.42;93.53
75022;SHT31;63583;49.976;20.182;2022-11-15T11:37:10;6.57;93.68
75022;SHT31;63583;49.976;20.182;2022-11-15T11:40:05;6.67;93.72
75022;SHT31;63583;49.976;20.182;2022-11-15T11:48:35;6.93;92.70
75022;SHT31;63583;49.976;20.182;2022-11-15T11:51:18;7.00;92.96
75022;SHT31;63583;49.976;20.182;2022-11-15T11:53:56;7.20;92.07
75022;SHT31;63583;49.976;20.182;2022-11-15T11:56:28;7.08;92.46
75022;SHT31;63583;49.976;20.182;2022-11-15T11:59:12;6.98;92.88
75022;SHT31;63583;49.976;20.182;2022-11-15T12:01:44;7.05;92.93
75022;SHT31;63583;49.976;20.182;2022-11-15T12:04:21;6.96;92.79
75022;SHT31;63583;49.976;20.182;2022-11-15T12:07:13;6.96;92.77
75022;SHT31;63583;49.976;20.182;2022-11-15T12:09:46;7.12;92.49
75022;SHT31;63583;49.976;20.182;2022-11-15T12:12:24;7.12;92.21
75022;SHT31;63583;49.976;20.182;2022-11-15T12:17:36;7.00;92.91
75022;SHT31;63583;49.976;20.182;2022-11-15T12:20:05;6.99;93.30
75022;SHT31;63583;49.976;20.182;2022-11-15T12:23:05;6.96;93.56
75022;SHT31;63583;49.976;20.182;2022-11-15T12:25:50;7.03;93.71
75022;SHT31;63583;49.976;20.182;2022-11-15T12:34:02;7.15;93.49
75022;SHT31;63583;49.976;20.182;2022-11-15T12:36:38;7.17;93.50
75022;SHT31;63583;49.976;20.182;2022-11-15T12:39:06;7.24;93.39
75022;SHT31;63583;49.976;20.182;2022-11-15T12:41:40;7.27;93.43
75022;SHT31;63583;49.976;20.182;2022-11-15T12:44:12;7.36;93.51
75022;SHT31;63583;49.976;20.182;2022-11-15T12:59:56;7.81;93.43
75022;SHT31;63583;49.976;20.182;2022-11-15T13:02:37;7.85;93.44
75022;SHT31;63583;49.976;20.182;2022-11-15T13:12:48;8.07;92.38
75022;SHT31;63583;49.976;20.182;2022-11-15T13:17:48;8.19;92.73
75022;SHT31;63583;49.976;20.182;2022-11-15T13:30:37;8.34;93.20
75022;SHT31;63583;49.976;20.182;2022-11-15T13:35:56;8.17;92.95
75022;SHT31;63583;49.976;20.182;2022-11-15T13:38:28;8.05;93.29
75022;SHT31;63583;49.976;20.182;2022-11-15T13:40:56;7.95;93.47
75022;SHT31;63583;49.976;20.182;2022-11-15T13:48:35;7.82;93.07
75022;SHT31;63583;49.976;20.182;2022-11-15T13:51:07;7.82;93.33
75022;SHT31;63583;49.976;20.182;2022-11-15T13:53:37;7.89;93.15
75022;SHT31;63583;49.976;20.182;2022-11-15T13:56:03;7.89;93.02
75022;SHT31;63583;49.976;20.182;2022-11-15T13:58:29;7.89;93.59
75022;SHT31;63583;49.976;20.182;2022-11-15T14:01:03;7.89;93.32
75022;SHT31;63583;49.976;20.182;2022-11-15T14:03:32;7.95;92.50
75022;SHT31;63583;49.976;20.182;2022-11-15T14:06:14;8.05;92.50
75022;SHT31;63583;49.976;20.182;2022-11-15T14:08:58;8.22;92.59
75022;SHT31;63583;49.976;20.182;2022-11-15T14:11:23;8.26;92.68
75022;SHT31;63583;49.976;20.182;2022-11-15T14:14:13;8.22;92.54
75022;SHT31;63583;49.976;20.182;2022-11-15T14:16:44;8.13;92.22
75022;SHT31;63583;49.976;20.182;2022-11-15T14:22:17;8.05;92.76
75022;SHT31;63583;49.976;20.182;2022-11-15T14:24:46;8.05;92.85
75022;SHT31;63583;49.976;20.182;2022-11-15T14:27:25;8.02;93.02
75022;SHT31;63583;49.976;20.182;2022-11-15T14:29:52;7.99;93.19
75022;SHT31;63583;49.976;20.182;2022-11-15T14:32:23;7.99;93.23
75022;SHT31;63583;49.976;20.182;2022-11-15T14:34:54;8.01;93.03
75022;SHT31;63583;49.976;20.182;2022-11-15T14:37:24;7.98;92.92
75022;SHT31;63583;49.976;20.182;2022-11-15T14:39:51;8.01;92.72
75022;SHT31;63583;49.976;20.182;2022-11-15T14:42:18;7.98;92.54
75022;SHT31;63583;49.976;20.182;2022-11-15T14:44:44;7.94;92.88
75022;SHT31;63583;49.976;20.182;2022-11-15T14:47:10;7.99;92.21
75022;SHT31;63583;49.976;20.182;2022-11-15T14:49:35;8.21;90.66
75022;SHT31;63583;49.976;20.182;2022-11-15T14:52:01;8.06;91.01
75022;SHT31;63583;49.976;20.182;2022-11-15T14:54:28;8.01;91.44
75022;SHT31;63583;49.976;20.182;2022-11-15T14:56:54;7.96;91.35
75022;SHT31;63583;49.976;20.182;2022-11-15T14:59:20;7.95;91.47
75022;SHT31;63583;49.976;20.182;2022-11-15T15:01:45;7.91;91.83
75022;SHT31;63583;49.976;20.182;2022-11-15T15:04:11;7.86;92.10
75022;SHT31;63583;49.976;20.182;2022-11-15T15:06:37;7.81;92.01
75022;SHT31;63583;49.976;20.182;2022-11-15T15:09:03;8.03;91.45
75022;SHT31;63583;49.976;20.182;2022-11-15T15:11:30;8.03;91.21
75022;SHT31;63583;49.976;20.182;2022-11-15T15:13:57;8.13;90.95
75022;SHT31;63583;49.976;20.182;2022-11-15T15:16:25;8.02;91.23
75022;SHT31;63583;49.976;20.182;2022-11-15T15:18:52;7.99;91.18
75022;SHT31;63583;49.976;20.182;2022-11-15T15:21:24;8.16;90.64
75022;SHT31;63583;49.976;20.182;2022-11-15T15:23:51;8.17;90.48
75022;SHT31;63583;49.976;20.182;2022-11-15T15:26:19;8.17;90.43
75022;SHT31;63583;49.976;20.182;2022-11-15T15:28:45;8.26;89.87
75022;SHT31;63583;49.976;20.182;2022-11-15T15:31:13;8.29;89.44
75022;SHT31;63583;49.976;20.182;2022-11-15T15:33:39;8.32;89.52
75022;SHT31;63583;49.976;20.182;2022-11-15T15:36:13;8.33;89.25
75022;SHT31;63583;49.976;20.182;2022-11-15T15:38:39;8.25;89.63
75022;SHT31;63583;49.976;20.182;2022-11-15T15:41:13;8.16;89.96
75022;SHT31;63583;49.976;20.182;2022-11-15T15:43:40;8.10;90.50
75022;SHT31;63583;49.976;20.182;2022-11-15T15:46:14;8.09;90.71
75022;SHT31;63583;49.976;20.182;2022-11-15T15:48:41;8.15;90.66
75022;SHT31;63583;49.976;20.182;2022-11-15T15:51:07;8.16;90.55
75022;SHT31;63583;49.976;20.182;2022-11-15T15:53:33;8.28;89.86
75022;SHT31;63583;49.976;20.182;2022-11-15T15:55:59;8.39;89.26
75022;SHT31;63583;49.976;20.182;2022-11-15T15:58:24;8.50;88.56
75022;SHT31;63583;49.976;20.182;2022-11-15T16:00:50;8.63;88.32
75022;SHT31;63583;49.976;20.182;2022-11-15T16:03:16;8.60;88.62
75022;SHT31;63583;49.976;20.182;2022-11-15T16:05:42;8.57;88.37
75022;SHT31;63583;49.976;20.182;2022-11-15T16:08:24;8.43;88.69
75022;SHT31;63583;49.976;20.182;2022-11-15T16:10:52;8.43;88.68
75022;SHT31;63583;49.976;20.182;2022-11-15T16:13:20;8.49;88.43
75022;SHT31;63583;49.976;20.182;2022-11-15T16:15:48;8.47;88.32
75022;SHT31;63583;49.976;20.182;2022-11-15T16:18:16;8.42;88.23
75022;SHT31;63583;49.976;20.182;2022-11-15T16:20:43;8.47;87.87
75022;SHT31;63583;49.976;20.182;2022-11-15T16:23:12;8.54;87.18
75022;SHT31;63583;49.976;20.182;2022-11-15T16:25:47;8.70;86.41
75022;SHT31;63583;49.976;20.182;2022-11-15T16:28:29;8.67;86.69
75022;SHT31;63583;49.976;20.182;2022-11-15T16:31:24;8.61;86.75
75022;SHT31;63583;49.976;20.182;2022-11-15T16:33:50;8.59;86.84
75022;SHT31;63583;49.976;20.182;2022-11-15T16:36:26;8.56;86.92
75022;SHT31;63583;49.976;20.182;2022-11-15T16:38:52;8.65;86.60
75022;SHT31;63583;49.976;20.182;2022-11-15T16:41:18;8.63;86.52
75022;SHT31;63583;49.976;20.182;2022-11-15T16:43:51;8.60;86.55
75022;SHT31;63583;49.976;20.182;2022-11-15T16:46:22;8.67;86.41
75022;SHT31;63583;49.976;20.182;2022-11-15T16:48:51;8.53;86.76
75022;SHT31;63583;49.976;20.182;2022-11-15T16:51:19;8.49;87.17
75022;SHT31;63583;49.976;20.182;2022-11-15T16:53:47;8.40;87.43
75022;SHT31;63583;49.976;20.182;2022-11-15T16:56:29;8.33;88.15
75022;SHT31;63583;49.976;20.182;2022-11-15T16:58:56;8.30;88.65
75022;SHT31;63583;49.976;20.182;2022-11-15T17:01:28;8.28;88.96
75022;SHT31;63583;49.976;20.182;2022-11-15T17:03:54;8.22;89.09
75022;SHT31;63583;49.976;20.182;2022-11-15T17:06:21;8.23;88.47
75022;SHT31;63583;49.976;20.182;2022-11-15T17:08:47;8.25;88.36
75022;SHT31;63583;49.976;20.182;2022-11-15T17:11:18;8.21;88.76
75022;SHT31;63583;49.976;20.182;2022-11-15T17:13:44;8.19;88.97
75022;SHT31;63583;49.976;20.182;2022-11-15T17:16:13;8.15;89.03
75022;SHT31;63583;49.976;20.182;2022-11-15T17:18:41;8.15;89.11
75022;SHT31;63583;49.976;20.182;2022-11-15T17:21:14;8.15;88.92
75022;SHT31;63583;49.976;20.182;2022-11-15T17:23:40;8.15;89.14
75022;SHT31;63583;49.976;20.182;2022-11-15T17:26:09;8.10;89.34
75022;SHT31;63583;49.976;20.182;2022-11-15T17:28:37;8.09;89.12
75022;SHT31;63583;49.976;20.182;2022-11-15T17:31:09;8.10;89.08
75022;SHT31;63583;49.976;20.182;2022-11-15T17:33:36;8.09;89.15
75022;SHT31;63583;49.976;20.182;2022-11-15T17:36:05;8.12;88.98
75022;SHT31;63583;49.976;20.182;2022-11-15T17:38:32;8.13;88.70
75022;SHT31;63583;49.976;20.182;2022-11-15T17:41:03;8.13;88.34
75022;SHT31;63583;49.976;20.182;2022-11-15T17:43:31;8.22;88.02
75022;SHT31;63583;49.976;20.182;2022-11-15T17:45:57;8.21;87.72
75022;SHT31;63583;49.976;20.182;2022-11-15T17:48:24;8.15;87.80
75022;SHT31;63583;49.976;20.182;2022-11-15T17:51:04;8.13;88.05
75022;SHT31;63583;49.976;20.182;2022-11-15T17:53:32;8.15;87.99
75022;SHT31;63583;49.976;20.182;2022-11-15T17:58:57;8.15;87.34
75022;SHT31;63583;49.976;20.182;2022-11-15T18:03:55;8.13;87.35